Time;durP1;ratioP1;P1;durP2;ratioP2;P2;SDS_P1;SDS_P2;PMS_P1;PMS_P2;Temp;Humidity;BMP_temperature;BMP_pressure;BME280_temperature;BME280_humidity;BME280_pressure;Samples;Min_cycle;Max_cycle;Signal;HPM_P1;HPM_P2
2022/06/17 00:01:02;;;;;;;10.50;7.72;;;15.10;99.90;;;;;;5041796;28;20041;-79
2022/06/17 00:03:30;;;;;;;10.07;7.32;;;15.20;99.90;;;;;;5040399;28;20037;-79
2022/06/17 00:05:58;;;;;;;11.15;7.72;;;15.10;99.90;;;;;;5038202;28;20370;-79
2022/06/17 00:08:45;;;;;;;11.82;8.73;;;15.20;99.90;;;;;;5048137;28;20056;-79
2022/06/17 00:11:25;;;;;;;12.48;8.45;;;15.20;99.90;;;;;;5036958;28;20078;-79
2022/06/17 00:13:51;;;;;;;9.90;7.97;;;15.20;99.90;;;;;;5050862;28;20068;-80
2022/06/17 00:16:19;;;;;;;11.02;8.40;;;15.20;99.90;;;;;;5050707;28;20053;-80
2022/06/17 00:18:45;;;;;;;10.43;7.35;;;15.20;99.90;;;;;;5040216;28;20041;-80
2022/06/17 00:21:27;;;;;;;10.63;8.07;;;15.20;99.90;;;;;;5041438;28;20049;-80
2022/06/17 00:23:53;;;;;;;13.82;9.52;;;15.20;99.90;;;;;;5037057;28;20132;-80
2022/06/17 00:26:20;;;;;;;15.65;10.00;;;15.20;99.90;;;;;;5040804;28;20102;-80
2022/06/17 00:28:47;;;;;;;11.50;8.18;;;15.30;99.90;;;;;;5051606;28;20041;-80
2022/06/17 00:31:14;;;;;;;11.90;9.13;;;15.30;99.90;;;;;;5041219;28;20541;-80
2022/06/17 00:33:40;;;;;;;12.13;9.13;;;15.20;99.90;;;;;;5049970;28;20124;-80
2022/06/17 00:36:09;;;;;;;12.65;9.38;;;15.20;99.90;;;;;;5037596;28;20108;-80
2022/06/17 00:38:36;;;;;;;14.05;11.07;;;15.20;99.90;;;;;;5040575;28;20041;-80
2022/06/17 00:41:29;;;;;;;12.88;10.40;;;15.30;99.90;;;;;;5040348;28;20045;-79
2022/06/17 00:43:57;;;;;;;16.83;10.45;;;15.80;99.90;;;;;;5049605;28;20052;-79
2022/06/17 00:46:35;;;;;;;13.00;10.05;;;15.30;99.90;;;;;;5040114;28;20437;-80
2022/06/17 00:49:05;;;;;;;15.02;10.88;;;15.30;99.90;;;;;;5040940;28;20044;-80
2022/06/17 00:51:40;;;;;;;15.35;10.40;;;15.40;99.90;;;;;;5050938;28;20033;-80
2022/06/17 00:54:25;;;;;;;13.43;10.30;;;15.30;99.90;;;;;;5039416;28;20102;-80
2022/06/17 00:56:50;;;;;;;13.95;10.63;;;15.20;99.90;;;;;;5038855;28;20454;-80
2022/06/17 00:59:16;;;;;;;17.35;11.95;;;15.30;99.90;;;;;;5037162;28;20068;-79
2022/06/17 01:01:51;;;;;;;14.90;10.52;;;15.80;99.90;;;;;;5040381;28;20488;-79
2022/06/17 01:04:38;;;;;;;15.63;11.00;;;15.30;99.90;;;;;;5040884;28;20044;-79
2022/06/17 01:07:14;;;;;;;13.95;10.85;;;15.20;99.90;;;;;;5035619;28;20080;-80
2022/06/17 01:09:58;;;;;;;14.77;10.93;;;15.20;99.90;;;;;;5035289;28;20060;-79
2022/06/17 01:12:33;;;;;;;12.60;9.85;;;15.10;99.90;;;;;;5050523;28;20125;-79
2022/06/17 01:14:59;;;;;;;13.52;10.45;;;15.00;99.90;;;;;;5040396;28;20041;-79
2022/06/17 01:17:25;;;;;;;17.20;11.90;;;15.10;99.90;;;;;;5050291;28;20072;-79
2022/06/17 01:19:57;;;;;;;15.48;11.88;;;15.00;99.90;;;;;;5050301;28;20037;-79
2022/06/17 01:22:26;;;;;;;16.67;12.50;;;15.00;99.90;;;;;;5035840;28;20091;-79
2022/06/17 01:25:05;;;;;;;14.57;10.88;;;15.40;99.90;;;;;;5041159;28;20045;-79
2022/06/17 01:27:49;;;;;;;14.57;10.95;;;15.00;99.90;;;;;;5050591;28;20033;-79
2022/06/17 01:30:40;;;;;;;13.70;11.05;;;15.00;99.90;;;;;;5044876;28;20338;-79
2022/06/17 01:33:20;;;;;;;13.90;11.32;;;15.00;99.90;;;;;;5036762;28;20144;-79
2022/06/17 01:35:52;;;;;;;16.85;11.45;;;14.90;99.90;;;;;;5043750;28;20041;-79
2022/06/17 01:38:21;;;;;;;15.32;11.20;;;14.90;99.90;;;;;;5040253;28;20091;-79
2022/06/17 01:40:46;;;;;;;14.73;11.00;;;14.90;99.90;;;;;;5041564;28;20075;-79
2022/06/17 01:43:16;;;;;;;14.73;10.80;;;14.90;99.90;;;;;;5043617;28;20044;-79
2022/06/17 01:45:48;;;;;;;13.60;10.63;;;14.80;99.90;;;;;;5044101;28;20120;-79
2022/06/17 01:48:17;;;;;;;12.50;9.98;;;14.80;99.90;;;;;;5044895;28;20048;-79
2022/06/17 01:50:47;;;;;;;14.13;10.57;;;14.70;99.90;;;;;;5042762;28;20128;-79
2022/06/17 01:53:18;;;;;;;12.85;10.32;;;15.80;99.90;;;;;;5045069;28;20132;-79
2022/06/17 01:55:56;;;;;;;12.85;10.43;;;14.70;99.90;;;;;;5044280;28;21915;-79
2022/06/17 01:58:37;;;;;;;12.82;10.05;;;14.80;99.90;;;;;;5044665;28;20091;-79
2022/06/17 02:01:06;;;;;;;15.77;10.32;;;14.60;99.90;;;;;;5041456;28;20052;-79
2022/06/17 02:03:39;;;;;;;14.13;10.63;;;15.00;99.90;;;;;;5052060;28;20128;-79
2022/06/17 02:06:12;;;;;;;13.32;10.73;;;14.60;99.90;;;;;;5039608;28;20051;-79
2022/06/17 02:08:38;;;;;;;12.63;9.23;;;14.60;99.90;;;;;;5054163;28;20048;-79
2022/06/17 02:11:06;;;;;;;12.20;9.32;;;14.50;99.90;;;;;;5053009;28;20150;-79
2022/06/17 02:13:33;;;;;;;14.05;10.93;;;14.50;99.90;;;;;;5053775;28;20086;-79
2022/06/17 02:16:04;;;;;;;14.95;10.85;;;14.50;99.90;;;;;;5043747;28;20069;-79
2022/06/17 02:18:30;;;;;;;14.18;10.68;;;14.70;99.90;;;;;;5024847;28;20046;-79
2022/06/17 02:21:02;;;;;;;13.80;10.00;;;14.50;99.90;;;;;;5007952;28;20049;-79
2022/06/17 02:23:29;;;;;;;13.52;10.40;;;14.50;99.90;;;;;;5031717;28;20037;-79
2022/06/17 02:25:56;;;;;;;13.20;10.48;;;14.50;99.90;;;;;;5007224;28;20132;-79
2022/06/17 02:28:25;;;;;;;14.23;9.68;;;14.40;99.90;;;;;;5021825;28;20429;-79
2022/06/17 02:30:51;;;;;;;14.48;11.13;;;14.50;99.90;;;;;;5004265;28;20046;-79
2022/06/17 02:33:18;;;;;;;14.93;10.70;;;14.80;99.90;;;;;;5024225;28;20050;-79
2022/06/17 02:36:16;;;;;;;14.32;10.48;;;14.60;99.90;;;;;;5004759;28;20057;-79
2022/06/17 02:38:43;;;;;;;15.90;11.00;;;14.60;99.90;;;;;;5030364;28;20079;-79
2022/06/17 02:41:17;;;;;;;12.55;9.50;;;14.60;99.90;;;;;;5024074;28;20034;-79
2022/06/17 02:43:58;;;;;;;14.85;10.60;;;14.60;99.90;;;;;;5004382;28;20046;-79
2022/06/17 02:46:36;;;;;;;13.43;10.65;;;14.70;99.90;;;;;;5003627;28;20053;-79
2022/06/17 02:49:11;;;;;;;14.63;10.65;;;14.70;99.90;;;;;;5023833;28;20377;-79
2022/06/17 02:51:39;;;;;;;15.95;10.18;;;14.70;99.90;;;;;;5006054;28;20134;-79
2022/06/17 02:54:07;;;;;;;12.90;10.00;;;14.70;99.90;;;;;;5005011;28;20045;-79
2022/06/17 02:56:35;;;;;;;15.07;9.60;;;14.70;99.90;;;;;;5025668;28;20046;-79
2022/06/17 02:59:05;;;;;;;13.18;9.63;;;14.70;99.90;;;;;;5022773;28;20045;-79
2022/06/17 03:01:36;;;;;;;12.77;9.18;;;14.70;99.90;;;;;;5022758;28;20061;-79
2022/06/17 03:04:12;;;;;;;11.27;9.23;;;14.70;99.90;;;;;;5022884;28;20049;-79
2022/06/17 03:06:40;;;;;;;12.85;8.88;;;14.70;99.90;;;;;;5005689;28;20060;-79
2022/06/17 03:09:24;;;;;;;12.80;9.00;;;14.60;99.90;;;;;;5013981;28;20046;-79
2022/06/17 03:11:55;;;;;;;12.23;8.38;;;14.60;99.90;;;;;;5028892;28;20080;-79
2022/06/17 03:14:23;;;;;;;10.50;8.48;;;14.60;99.90;;;;;;5002780;28;20140;-79
2022/06/17 03:16:53;;;;;;;11.27;8.90;;;14.80;99.90;;;;;;5049507;28;20060;-79
2022/06/17 03:19:21;;;;;;;13.05;9.15;;;14.60;99.90;;;;;;5040065;28;20064;-79
2022/06/17 03:21:47;;;;;;;10.43;8.68;;;14.80;99.90;;;;;;5044157;28;20062;-79
2022/06/17 03:24:34;;;;;;;10.38;8.77;;;14.70;99.90;;;;;;5064119;28;20459;-79
2022/06/17 03:27:10;;;;;;;13.70;9.32;;;14.70;99.90;;;;;;5043397;28;20041;-79
2022/06/17 03:29:39;;;;;;;10.30;8.30;;;14.70;99.90;;;;;;5041625;28;20048;-79
2022/06/17 03:32:22;;;;;;;15.20;9.13;;;14.70;99.90;;;;;;5043086;28;20075;-79
2022/06/17 03:34:51;;;;;;;11.57;8.77;;;14.80;99.90;;;;;;5060289;28;20060;-79
2022/06/17 03:37:38;;;;;;;12.13;9.15;;;14.80;99.90;;;;;;5045265;28;20174;-80
2022/06/17 03:40:11;;;;;;;12.85;8.48;;;14.80;99.90;;;;;;5063431;28;20067;-80
2022/06/17 03:43:01;;;;;;;13.00;9.32;;;14.80;99.90;;;;;;5041495;28;20045;-79
2022/06/17 03:45:41;;;;;;;13.30;8.85;;;14.80;99.90;;;;;;5044517;28;20049;-80
2022/06/17 03:48:31;;;;;;;12.30;8.88;;;14.90;99.90;;;;;;5059985;28;20123;-79
2022/06/17 03:50:57;;;;;;;11.13;8.20;;;14.90;99.90;;;;;;5062706;28;20119;-79
2022/06/17 03:53:25;;;;;;;13.45;8.95;;;14.90;99.90;;;;;;5043703;28;20119;-79
2022/06/17 03:55:52;;;;;;;12.45;8.63;;;15.00;99.90;;;;;;5060718;28;20043;-80
2022/06/17 03:58:22;;;;;;;12.20;8.75;;;15.10;99.90;;;;;;5041000;28;20041;-80
2022/06/17 04:01:00;;;;;;;11.98;9.15;;;15.30;99.90;;;;;;5062353;28;20037;-76
2022/06/17 04:03:31;;;;;;;12.30;9.05;;;15.10;99.90;;;;;;5061533;28;20037;-75
2022/06/17 04:06:15;;;;;;;13.50;8.93;;;15.10;99.90;;;;;;5061288;28;20037;-80
2022/06/17 04:08:59;;;;;;;11.63;8.85;;;15.40;99.90;;;;;;5035953;28;20045;-77
2022/06/17 04:11:30;;;;;;;12.15;9.05;;;15.20;99.90;;;;;;5042455;28;20055;-76
2022/06/17 04:13:59;;;;;;;13.88;10.23;;;15.20;99.90;;;;;;5040392;28;20092;-75
2022/06/17 04:16:43;;;;;;;11.75;8.38;;;15.20;99.90;;;;;;5034476;28;20049;-74
2022/06/17 04:19:19;;;;;;;12.95;9.98;;;15.30;99.90;;;;;;5030148;28;20045;-78
2022/06/17 04:21:44;;;;;;;12.00;8.60;;;15.30;99.90;;;;;;5030637;28;20535;-76
2022/06/17 04:24:18;;;;;;;11.27;9.30;;;15.50;99.90;;;;;;5029245;28;20291;-81
2022/06/17 04:26:46;;;;;;;14.00;10.07;;;16.30;99.90;;;;;;5031602;28;20050;-71
2022/06/17 04:29:19;;;;;;;13.93;8.80;;;15.40;99.90;;;;;;5030666;28;20439;-74
2022/06/17 04:31:47;;;;;;;11.55;8.65;;;15.40;99.90;;;;;;5028997;28;20045;-74
2022/06/17 04:34:16;;;;;;;14.65;8.93;;;15.40;99.90;;;;;;5029318;28;20081;-74
2022/06/17 04:37:04;;;;;;;13.02;9.40;;;15.30;99.90;;;;;;5029991;28;20045;-74
2022/06/17 04:39:43;;;;;;;13.38;8.70;;;15.40;99.90;;;;;;5021427;28;20037;-74
2022/06/17 04:42:27;;;;;;;14.90;9.65;;;15.40;99.90;;;;;;5030816;28;20052;-74
2022/06/17 04:44:53;;;;;;;10.85;8.88;;;15.50;99.90;;;;;;5030665;28;20052;-74
2022/06/17 04:47:20;;;;;;;13.20;9.95;;;15.50;99.90;;;;;;5029820;28;20424;-74
2022/06/17 04:49:53;;;;;;;15.30;9.02;;;15.50;99.90;;;;;;5030916;28;20060;-74
2022/06/17 04:52:34;;;;;;;16.63;9.60;;;15.50;99.90;;;;;;5030163;28;20164;-74
2022/06/17 04:55:03;;;;;;;13.07;9.45;;;15.60;99.90;;;;;;5027591;28;20046;-74
2022/06/17 04:57:30;;;;;;;11.60;9.13;;;15.70;99.90;;;;;;5026080;28;20405;-74
2022/06/17 04:59:58;;;;;;;14.35;9.75;;;15.60;99.90;;;;;;5028321;28;20071;-74
2022/06/17 05:02:28;;;;;;;13.23;9.13;;;15.80;99.90;;;;;;5035999;28;20477;-74
2022/06/17 05:04:59;;;;;;;11.38;8.75;;;15.70;99.90;;;;;;5031836;28;20115;-75
2022/06/17 05:07:27;;;;;;;12.00;9.50;;;16.10;99.90;;;;;;5032733;28;20051;-71
2022/06/17 05:09:59;;;;;;;16.08;10.27;;;15.70;99.90;;;;;;5036742;28;20416;-75
2022/06/17 05:12:35;;;;;;;13.25;9.73;;;15.80;99.90;;;;;;5032412;28;20041;-73
2022/06/17 05:15:17;;;;;;;11.65;9.15;;;15.90;99.90;;;;;;5035478;28;20505;-73
2022/06/17 05:17:43;;;;;;;14.45;10.05;;;16.10;99.90;;;;;;5056989;28;20044;-74
2022/06/17 05:20:21;;;;;;;14.63;10.00;;;16.10;99.90;;;;;;5044868;28;20051;-73
2022/06/17 05:23:02;;;;;;;13.82;9.90;;;16.20;99.90;;;;;;5048534;28;20048;-75
2022/06/17 05:25:31;;;;;;;11.68;9.88;;;16.30;99.90;;;;;;5047512;28;20048;-76
2022/06/17 05:27:56;;;;;;;15.25;10.05;;;16.50;99.90;;;;;;5042601;28;20053;-78
2022/06/17 05:30:22;;;;;;;13.48;10.55;;;16.40;99.90;;;;;;5047133;28;20037;-77
2022/06/17 05:32:53;;;;;;;13.35;9.65;;;16.50;99.90;;;;;;5057454;28;20037;-76
2022/06/17 05:35:20;;;;;;;12.75;9.00;;;16.50;99.90;;;;;;5052402;28;20044;-75
2022/06/17 05:37:45;;;;;;;14.73;10.10;;;16.50;99.90;;;;;;5057016;28;20119;-77
2022/06/17 05:40:12;;;;;;;12.27;9.63;;;16.50;99.90;;;;;;5047428;28;20508;-76
2022/06/17 05:42:39;;;;;;;13.77;10.45;;;16.60;99.90;;;;;;5056196;28;20546;-75
2022/06/17 05:45:05;;;;;;;16.10;10.02;;;16.60;99.90;;;;;;5043295;28;20045;-73
2022/06/17 05:47:31;;;;;;;14.48;10.13;;;16.70;99.90;;;;;;5057107;28;20059;-73
2022/06/17 05:49:57;;;;;;;13.57;10.35;;;16.80;99.90;;;;;;5056679;28;20045;-76
2022/06/17 05:52:22;;;;;;;13.00;10.57;;;16.80;99.90;;;;;;5046306;28;20076;-76
2022/06/17 05:54:48;;;;;;;15.40;10.65;;;16.90;99.90;;;;;;5047935;28;20037;-76
2022/06/17 05:57:14;;;;;;;16.38;10.15;;;16.90;99.90;;;;;;5046213;28;20049;-75
2022/06/17 05:59:39;;;;;;;14.48;10.32;;;17.10;99.90;;;;;;5046136;28;20072;-76
2022/06/17 06:02:06;;;;;;;11.43;10.00;;;17.10;99.90;;;;;;5046639;28;20049;-76
2022/06/17 06:04:32;;;;;;;14.07;10.27;;;17.10;99.90;;;;;;5047731;28;20099;-76
2022/06/17 06:06:59;;;;;;;14.82;9.93;;;17.30;99.90;;;;;;5047249;28;20412;-75
2022/06/17 06:09:25;;;;;;;12.05;9.77;;;17.40;99.90;;;;;;5046825;28;20041;-75
2022/06/17 06:11:52;;;;;;;14.15;9.65;;;17.40;99.90;;;;;;5044778;28;20436;-76
2022/06/17 06:14:17;;;;;;;13.93;9.90;;;17.50;99.90;;;;;;5043670;28;20179;-75
2022/06/17 06:16:43;;;;;;;12.98;10.15;;;17.60;99.90;;;;;;5043300;28;20536;-75
2022/06/17 06:19:08;;;;;;;12.10;9.23;;;17.70;99.90;;;;;;5053574;28;20045;-75
2022/06/17 06:21:34;;;;;;;16.20;9.75;;;17.70;99.90;;;;;;5044046;28;20420;-75
2022/06/17 06:24:00;;;;;;;12.95;9.80;;;17.70;99.90;;;;;;5043261;28;20048;-76
2022/06/17 06:26:25;;;;;;;12.40;9.57;;;17.70;99.90;;;;;;5053088;28;20453;-75
2022/06/17 06:28:51;;;;;;;11.68;9.23;;;17.80;99.90;;;;;;5053959;28;20067;-76
2022/06/17 06:31:36;;;;;;;12.95;9.43;;;17.80;99.90;;;;;;5042710;28;20404;-76
2022/06/17 06:34:02;;;;;;;12.50;9.38;;;17.90;99.90;;;;;;5044197;28;20053;-77
2022/06/17 06:36:27;;;;;;;14.77;9.85;;;18.00;99.90;;;;;;5043035;28;20045;-77
2022/06/17 06:38:53;;;;;;;12.48;9.15;;;18.00;99.90;;;;;;5053155;28;20052;-77
2022/06/17 06:41:20;;;;;;;11.65;9.82;;;18.00;99.90;;;;;;5043638;28;20033;-77
2022/06/17 06:43:45;;;;;;;12.23;8.13;;;18.10;99.90;;;;;;5043691;28;20047;-76
2022/06/17 06:46:14;;;;;;;11.88;9.25;;;18.10;99.90;;;;;;5039870;28;20400;-75
2022/06/17 06:48:40;;;;;;;14.82;8.75;;;18.30;99.90;;;;;;5040450;28;20037;-75
2022/06/17 06:51:06;;;;;;;14.95;9.60;;;18.40;99.90;;;;;;5048734;28;20033;-76
2022/06/17 06:53:31;;;;;;;12.68;9.05;;;18.50;99.90;;;;;;5043476;28;20546;-75
2022/06/17 06:55:57;;;;;;;11.90;9.63;;;18.60;99.90;;;;;;5041290;28;20059;-77
2022/06/17 06:58:24;;;;;;;11.57;9.27;;;18.70;99.90;;;;;;5043008;28;20120;-77
2022/06/17 07:00:52;;;;;;;11.02;9.10;;;18.90;99.90;;;;;;5044082;28;20040;-77
2022/06/17 07:03:18;;;;;;;12.15;8.57;;;19.10;99.90;;;;;;5053549;28;20044;-76
2022/06/17 07:05:46;;;;;;;11.32;9.05;;;19.10;99.90;;;;;;5052319;28;20041;-75
2022/06/17 07:08:14;;;;;;;10.50;8.15;;;19.20;99.90;;;;;;5042790;28;20048;-76
2022/06/17 07:10:40;;;;;;;11.52;7.88;;;19.20;99.90;;;;;;5043030;28;20388;-75
2022/06/17 07:13:08;;;;;;;12.90;9.48;;;19.30;99.90;;;;;;5042702;28;20064;-76
2022/06/17 07:15:35;;;;;;;12.60;9.32;;;19.30;99.90;;;;;;5048929;28;20477;-76
2022/06/17 07:18:07;;;;;;;10.38;8.32;;;19.50;99.90;;;;;;5043120;28;20053;-76
2022/06/17 07:20:37;;;;;;;10.13;7.95;;;19.50;99.90;;;;;;5047763;28;20079;-76
2022/06/17 07:23:07;;;;;;;12.88;8.55;;;19.70;99.90;;;;;;5048397;28;20511;-77
2022/06/17 07:25:34;;;;;;;12.82;8.40;;;19.90;99.90;;;;;;5053069;28;20045;-76
2022/06/17 07:28:00;;;;;;;10.07;8.30;;;20.10;99.90;;;;;;5051386;28;20049;-76
2022/06/17 07:30:28;;;;;;;12.13;8.45;;;20.20;99.90;;;;;;5042886;28;20088;-76
2022/06/17 07:32:54;;;;;;;10.82;8.20;;;20.30;99.90;;;;;;5043189;28;20048;-77
2022/06/17 07:35:20;;;;;;;11.50;8.85;;;20.40;99.90;;;;;;5041996;28;20095;-76
2022/06/17 07:40:31;;;;;;;11.23;8.57;;;20.40;99.90;;;;;;5048107;28;20477;-76
2022/06/17 07:42:58;;;;;;;10.65;8.10;;;20.50;99.90;;;;;;5042676;28;20067;-75
2022/06/17 07:45:29;;;;;;;11.20;8.18;;;20.60;99.90;;;;;;5038258;28;20071;-77
2022/06/17 07:47:56;;;;;;;12.68;8.30;;;20.80;99.90;;;;;;5051592;28;20047;-75
2022/06/17 07:50:28;;;;;;;14.75;8.52;;;21.10;99.90;;;;;;5041846;28;20556;-74
2022/06/17 07:52:54;;;;;;;10.07;8.20;;;21.60;99.90;;;;;;5042461;28;20041;-74
2022/06/17 07:55:20;;;;;;;10.27;8.13;;;21.90;99.90;;;;;;5043492;28;20040;-73
2022/06/17 07:57:46;;;;;;;11.15;7.82;;;22.40;99.90;;;;;;5042213;28;20040;-75
2022/06/17 08:00:37;;;;;;;11.60;7.78;;;22.90;99.90;;;;;;5042413;28;20456;-72
2022/06/17 08:03:04;;;;;;;9.05;6.85;;;23.10;99.90;;;;;;5049642;28;20573;-75
2022/06/17 08:05:30;;;;;;;10.60;7.03;;;23.50;99.40;;;;;;5052095;28;20112;-79
2022/06/17 08:07:57;;;;;;;9.50;5.95;;;23.70;98.70;;;;;;5052033;28;20068;-78
2022/06/17 08:10:28;;;;;;;10.98;6.15;;;23.60;97.40;;;;;;5033596;28;20079;-75
2022/06/17 08:12:53;;;;;;;9.05;6.00;;;23.20;97.60;;;;;;5033725;28;20132;-70
2022/06/17 08:15:21;;;;;;;8.48;5.85;;;22.90;97.80;;;;;;5041624;28;20466;-72
2022/06/17 08:17:48;;;;;;;7.78;6.03;;;22.90;98.60;;;;;;5035353;28;20337;-70
2022/06/17 08:20:30;;;;;;;8.40;5.97;;;22.80;98.10;;;;;;5031603;28;20044;-73
2022/06/17 08:22:56;;;;;;;10.00;6.32;;;22.60;98.50;;;;;;5047877;28;20381;-75
2022/06/17 08:25:22;;;;;;;7.03;5.65;;;22.70;98.70;;;;;;5042501;28;20037;-75
2022/06/17 08:27:51;;;;;;;9.82;6.13;;;22.80;98.40;;;;;;5041578;28;20045;-74
2022/06/17 08:30:20;;;;;;;9.15;6.53;;;22.90;98.40;;;;;;5037826;28;20068;-74
2022/06/17 08:32:48;;;;;;;11.38;6.28;;;22.90;98.60;;;;;;5025619;28;20530;-74
2022/06/17 08:35:21;;;;;;;7.47;6.07;;;22.70;98.80;;;;;;5042783;28;20099;-74
2022/06/17 08:37:47;;;;;;;8.98;5.72;;;22.70;98.00;;;;;;5049456;28;20131;-74
2022/06/17 08:40:51;;;;;;;9.52;6.05;;;22.60;97.70;;;;;;5037518;28;20094;-80
2022/06/17 08:43:31;;;;;;;7.75;5.40;;;22.60;98.20;;;;;;5040709;28;20080;-78
2022/06/17 08:46:13;;;;;;;8.38;5.80;;;22.50;98.20;;;;;;5036313;28;20048;-73
2022/06/17 08:48:50;;;;;;;7.78;5.47;;;22.40;98.40;;;;;;5033000;28;20072;-70
2022/06/17 08:51:35;;;;;;;9.13;5.35;;;22.40;98.30;;;;;;5032403;28;20047;-71
2022/06/17 08:54:22;;;;;;;7.07;5.30;;;22.50;98.30;;;;;;5028197;28;20132;-70
2022/06/17 08:57:15;;;;;;;10.95;4.78;;;22.50;98.30;;;;;;5025333;28;20198;-71
2022/06/17 08:59:59;;;;;;;9.63;6.10;;;22.60;98.00;;;;;;5047875;28;20040;-71
2022/06/17 09:02:43;;;;;;;8.95;5.53;;;22.70;97.80;;;;;;5046782;28;20041;-71
2022/06/17 09:05:28;;;;;;;8.57;6.15;;;22.70;98.30;;;;;;5047481;28;20129;-71
2022/06/17 09:08:28;;;;;;;9.57;6.18;;;22.90;98.50;;;;;;5049508;28;20053;-71
2022/06/17 09:11:09;;;;;;;10.07;6.00;;;23.20;98.60;;;;;;5035785;28;20106;-69
2022/06/17 09:13:42;;;;;;;7.70;5.57;;;23.60;97.60;;;;;;5040261;28;20048;-69
2022/06/17 09:16:45;;;;;;;8.15;5.88;;;24.10;97.20;;;;;;5038746;28;20049;-68
2022/06/17 09:19:15;;;;;;;8.15;6.03;;;24.50;96.40;;;;;;5049027;28;20045;-68
2022/06/17 09:21:51;;;;;;;9.00;5.80;;;24.80;96.80;;;;;;5035173;28;20040;-69
2022/06/17 09:24:24;;;;;;;8.25;5.90;;;24.90;96.50;;;;;;5034516;28;20037;-70
2022/06/17 09:26:58;;;;;;;8.23;5.70;;;25.10;95.70;;;;;;5035338;28;20083;-69
2022/06/17 09:29:42;;;;;;;7.75;4.93;;;25.40;95.30;;;;;;5049942;28;20103;-69
2022/06/17 09:32:19;;;;;;;7.47;4.57;;;25.50;94.50;;;;;;5035710;28;20040;-69
2022/06/17 09:35:19;;;;;;;7.30;4.85;;;25.50;94.10;;;;;;5047579;28;20140;-70
2022/06/17 09:38:05;;;;;;;8.45;5.43;;;25.30;93.50;;;;;;5032189;28;20416;-69
2022/06/17 09:40:39;;;;;;;7.15;4.90;;;25.40;94.00;;;;;;5032402;28;20425;-69
2022/06/17 09:43:14;;;;;;;9.98;6.05;;;25.70;94.30;;;;;;5049498;28;20041;-72
2022/06/17 09:45:47;;;;;;;8.80;5.27;;;26.00;94.00;;;;;;5034993;28;20041;-70
2022/06/17 09:48:22;;;;;;;8.95;5.85;;;26.40;92.70;;;;;;5048905;28;20045;-71
2022/06/17 09:51:01;;;;;;;8.10;5.90;;;26.60;92.90;;;;;;5054254;28;20044;-71
2022/06/17 09:53:29;;;;;;;8.35;5.13;;;26.90;93.10;;;;;;5040970;28;20068;-70
2022/06/17 09:56:05;;;;;;;7.82;5.50;;;26.70;92.90;;;;;;5043692;28;20041;-70
2022/06/17 09:58:54;;;;;;;7.63;5.18;;;26.70;92.70;;;;;;5044204;28;20459;-71
2022/06/17 10:01:20;;;;;;;8.88;5.82;;;26.30;92.80;;;;;;5043281;28;20159;-70
2022/06/17 10:03:46;;;;;;;10.68;5.78;;;26.20;92.70;;;;;;5053758;28;20041;-73
2022/06/17 10:06:29;;;;;;;7.43;4.95;;;26.20;92.70;;;;;;5043610;28;20405;-71
2022/06/17 10:08:54;;;;;;;6.93;5.07;;;26.20;93.20;;;;;;5042175;28;20044;-70
2022/06/17 10:11:38;;;;;;;8.13;5.30;;;26.40;93.60;;;;;;5042094;28;20044;-71
2022/06/17 10:14:16;;;;;;;8.32;5.35;;;26.50;92.80;;;;;;5044215;28;20039;-73
2022/06/17 10:19:58;;;;;;;10.45;5.63;;;26.70;92.70;;;;;;5050820;28;20060;-71
2022/06/17 10:22:42;;;;;;;8.18;5.95;;;26.80;92.50;;;;;;5051862;28;20045;-72
2022/06/17 10:25:35;;;;;;;7.20;5.82;;;27.00;92.40;;;;;;5049903;28;20519;-70
2022/06/17 10:28:01;;;;;;;8.90;5.95;;;27.00;92.10;;;;;;5042049;28;20485;-72
2022/06/17 10:30:46;;;;;;;8.05;5.60;;;27.20;91.70;;;;;;5041879;28;20041;-73
2022/06/17 10:33:15;;;;;;;8.57;6.30;;;27.20;91.80;;;;;;5050061;28;20992;-70
2022/06/17 10:35:43;;;;;;;8.73;6.03;;;27.10;91.80;;;;;;5044191;28;20045;-71
2022/06/17 10:38:15;;;;;;;8.15;6.00;;;27.00;92.00;;;;;;5042594;28;20536;-72
2022/06/17 10:40:41;;;;;;;8.35;5.90;;;26.80;92.10;;;;;;5041779;28;20041;-73
2022/06/17 10:43:31;;;;;;;10.00;5.57;;;26.80;92.10;;;;;;5040465;28;20095;-73
2022/06/17 10:45:57;;;;;;;8.82;5.93;;;26.60;92.20;;;;;;5044191;28;20120;-74
2022/06/17 10:48:33;;;;;;;8.43;5.40;;;26.50;92.30;;;;;;5043365;28;20048;-72
2022/06/17 10:51:00;;;;;;;;;;;26.50;92.40;;;;;;5052887;28;20041;-74
2022/06/17 10:53:38;;;;;;;8.75;5.57;;;26.40;93.00;;;;;;5049016;28;19920;-72
2022/06/17 10:56:17;;;;;;;10.57;6.13;;;26.60;93.10;;;;;;5051860;28;20037;-75
2022/06/17 10:59:07;;;;;;;9.93;5.78;;;27.00;92.30;;;;;;5042134;28;20045;-71
2022/06/17 11:01:49;;;;;;;11.18;5.03;;;27.60;91.90;;;;;;5049597;28;20555;-72
2022/06/17 11:04:25;;;;;;;8.65;5.57;;;28.30;92.00;;;;;;5052560;28;20135;-73
2022/06/17 11:07:00;;;;;;;8.75;6.18;;;28.60;91.10;;;;;;5052406;28;20036;-75
2022/06/17 11:09:50;;;;;;;7.65;5.53;;;28.80;90.70;;;;;;5039024;28;20112;-72
2022/06/17 11:12:24;;;;;;;8.20;5.07;;;29.20;89.80;;;;;;5041867;28;20132;-75
2022/06/17 11:15:03;;;;;;;7.57;5.10;;;28.90;90.30;;;;;;5052773;28;20586;-73
2022/06/17 11:17:39;;;;;;;10.07;5.57;;;28.80;90.30;;;;;;5039538;28;20092;-75
2022/06/17 11:20:28;;;;;;;7.30;5.88;;;29.00;90.00;;;;;;5042249;28;20496;-72
2022/06/17 11:23:03;;;;;;;8.50;5.60;;;29.00;89.40;;;;;;5035758;28;20412;-70
2022/06/17 11:25:32;;;;;;;16.65;5.85;;;29.10;89.30;;;;;;5051842;28;20106;-70
2022/06/17 11:28:23;;;;;;;6.32;4.28;;;29.10;89.30;;;;;;5043190;28;20056;-70
2022/06/17 11:30:51;;;;;;;7.93;5.15;;;29.10;89.90;;;;;;5018205;28;20096;-67
2022/06/17 11:34:00;;;;;;;6.72;4.88;;;29.10;88.80;;;;;;5046784;28;20140;-68
2022/06/17 11:36:31;;;;;;;7.00;5.35;;;29.00;89.60;;;;;;5053924;28;20148;-68
2022/06/17 11:39:18;;;;;;;14.48;6.70;;;28.90;87.80;;;;;;5052106;28;20485;-67
2022/06/17 11:41:44;;;;;;;5.65;4.85;;;28.90;87.70;;;;;;5038633;28;20091;-68
2022/06/17 11:44:16;;;;;;;8.07;4.97;;;28.80;87.70;;;;;;5050068;28;20071;-68
2022/06/17 11:47:01;;;;;;;7.85;4.35;;;28.90;88.10;;;;;;5050921;28;20056;-68
2022/06/17 11:49:32;;;;;;;5.93;4.50;;;28.90;88.80;;;;;;5048571;28;20507;-67
2022/06/17 11:52:01;;;;;;;5.85;4.47;;;29.00;87.80;;;;;;5050140;28;20067;-68
2022/06/17 11:54:35;;;;;;;9.10;4.30;;;29.10;88.00;;;;;;5038495;28;20424;-66
2022/06/17 11:57:19;;;;;;;7.75;4.88;;;29.10;88.20;;;;;;5041914;28;20083;-68
2022/06/17 11:59:49;;;;;;;7.50;4.57;;;29.20;87.30;;;;;;5047381;28;20037;-68
2022/06/17 12:02:14;;;;;;;7.72;4.82;;;29.20;87.70;;;;;;5041483;28;20048;-67
2022/06/17 12:04:50;;;;;;;6.50;5.03;;;29.20;87.50;;;;;;5051747;28;20037;-67
2022/06/17 12:07:28;;;;;;;7.32;4.50;;;29.20;87.20;;;;;;5041484;28;20052;-67
2022/06/17 12:10:22;;;;;;;10.95;4.82;;;28.90;88.10;;;;;;5049930;28;20041;-68
2022/06/17 12:12:51;;;;;;;8.38;4.45;;;28.80;87.80;;;;;;5041342;28;20053;-66
2022/06/17 12:15:28;;;;;;;8.15;4.32;;;28.60;88.50;;;;;;5049928;28;20416;-67
2022/06/17 12:17:57;;;;;;;7.40;4.45;;;28.60;86.50;;;;;;5041040;28;20053;-68
2022/06/17 12:20:37;;;;;;;7.75;4.93;;;28.50;87.70;;;;;;5040964;28;20037;-67
2022/06/17 12:23:17;;;;;;;7.10;4.40;;;28.50;86.40;;;;;;5039538;28;20051;-68
2022/06/17 12:25:58;;;;;;;6.95;4.25;;;28.40;86.40;;;;;;5046202;28;20045;-68
2022/06/17 12:28:40;;;;;;;7.30;4.53;;;28.20;85.00;;;;;;5050710;28;20033;-68
2022/06/17 12:31:28;;;;;;;9.27;4.40;;;28.00;86.60;;;;;;5050206;28;20041;-68
2022/06/17 12:34:13;;;;;;;7.28;4.43;;;27.80;87.50;;;;;;5049166;28;20090;-67
2022/06/17 12:36:48;;;;;;;7.68;4.65;;;27.80;85.90;;;;;;5040452;28;20473;-68
2022/06/17 12:39:27;;;;;;;8.43;4.60;;;27.70;85.50;;;;;;5035386;28;20067;-68
2022/06/17 12:41:59;;;;;;;7.47;4.70;;;27.80;86.20;;;;;;5041535;28;20053;-68
2022/06/17 12:44:44;;;;;;;7.43;4.85;;;27.70;85.40;;;;;;5050152;28;20041;-67
2022/06/17 12:47:32;;;;;;;8.30;4.40;;;27.60;86.20;;;;;;5046481;28;20047;-67
2022/06/17 12:53:17;;;;;;;7.75;4.88;;;27.50;85.00;;;;;;5039374;28;20110;-68
2022/06/17 12:56:04;;;;;;;5.35;4.25;;;27.70;86.50;;;;;;5038101;28;20083;-69
2022/06/17 12:58:45;;;;;;;7.05;4.20;;;27.60;84.90;;;;;;5040659;28;20048;-68
2022/06/17 13:01:25;;;;;;;6.18;4.40;;;27.60;85.50;;;;;;5035677;28;20261;-68
2022/06/17 13:03:54;;;;;;;7.57;4.75;;;27.50;86.60;;;;;;5050657;28;20091;-68
2022/06/17 13:06:32;;;;;;;8.30;4.82;;;27.50;87.20;;;;;;5049272;28;20167;-68
2022/06/17 13:09:11;;;;;;;6.50;4.60;;;27.60;87.20;;;;;;5039987;28;20037;-69
2022/06/17 13:11:46;;;;;;;8.65;4.28;;;27.60;88.30;;;;;;5046598;28;20122;-68
2022/06/17 13:14:29;;;;;;;5.65;4.22;;;27.60;88.80;;;;;;5040479;28;20124;-68
2022/06/17 13:17:07;;;;;;;7.32;4.20;;;27.70;86.00;;;;;;5056113;28;20053;-68
2022/06/17 13:20:02;;;;;;;8.38;4.40;;;27.80;86.80;;;;;;5033019;28;20155;-68